sensor_id;sensor_type;location;lat;lon;timestamp;P1;durP1;ratioP1;P2;durP2;ratioP2
33162;SDS011;29282;45.656;11.302;2023-06-14T00:00:47;5.60;;;4.03;;
33162;SDS011;29282;45.656;11.302;2023-06-14T00:03:16;5.60;;;3.85;;
33162;SDS011;29282;45.656;11.302;2023-06-14T00:05:43;5.07;;;3.78;;
33162;SDS011;29282;45.656;11.302;2023-06-14T00:08:09;6.60;;;4.13;;
33162;SDS011;29282;45.656;11.302;2023-06-14T00:10:36;7.45;;;3.83;;
33162;SDS011;29282;45.656;11.302;2023-06-14T00:13:02;5.20;;;3.72;;
33162;SDS011;29282;45.656;11.302;2023-06-14T00:15:30;4.40;;;3.65;;
33162;SDS011;29282;45.656;11.302;2023-06-14T00:18:02;6.22;;;4.32;;
33162;SDS011;29282;45.656;11.302;2023-06-14T00:20:32;5.22;;;3.63;;
33162;SDS011;29282;45.656;11.302;2023-06-14T00:22:59;5.25;;;3.70;;
33162;SDS011;29282;45.656;11.302;2023-06-14T00:25:28;5.78;;;4.05;;
33162;SDS011;29282;45.656;11.302;2023-06-14T00:27:54;6.70;;;3.90;;
33162;SDS011;29282;45.656;11.302;2023-06-14T00:30:23;7.03;;;3.90;;
33162;SDS011;29282;45.656;11.302;2023-06-14T00:32:50;5.53;;;4.18;;
33162;SDS011;29282;45.656;11.302;2023-06-14T00:35:16;4.90;;;4.00;;
33162;SDS011;29282;45.656;11.302;2023-06-14T00:37:42;5.88;;;3.75;;
33162;SDS011;29282;45.656;11.302;2023-06-14T00:40:08;5.15;;;3.80;;
33162;SDS011;29282;45.656;11.302;2023-06-14T00:42:34;5.13;;;3.70;;
33162;SDS011;29282;45.656;11.302;2023-06-14T00:45:00;5.30;;;3.70;;
33162;SDS011;29282;45.656;11.302;2023-06-14T00:47:26;4.65;;;3.83;;
33162;SDS011;29282;45.656;11.302;2023-06-14T00:49:55;4.90;;;3.60;;
33162;SDS011;29282;45.656;11.302;2023-06-14T00:52:24;6.18;;;3.97;;
33162;SDS011;29282;45.656;11.302;2023-06-14T00:54:57;3.67;;;3.35;;
33162;SDS011;29282;45.656;11.302;2023-06-14T00:57:23;5.65;;;3.40;;
33162;SDS011;29282;45.656;11.302;2023-06-14T00:59:50;4.57;;;3.60;;
33162;SDS011;29282;45.656;11.302;2023-06-14T01:02:16;4.72;;;3.60;;
33162;SDS011;29282;45.656;11.302;2023-06-14T01:04:46;6.18;;;3.85;;
33162;SDS011;29282;45.656;11.302;2023-06-14T01:10:17;4.30;;;3.40;;
33162;SDS011;29282;45.656;11.302;2023-06-14T01:15:55;5.32;;;4.00;;
33162;SDS011;29282;45.656;11.302;2023-06-14T01:18:24;5.05;;;3.55;;
33162;SDS011;29282;45.656;11.302;2023-06-14T01:20:54;4.30;;;3.70;;
33162;SDS011;29282;45.656;11.302;2023-06-14T01:23:22;5.65;;;3.83;;
33162;SDS011;29282;45.656;11.302;2023-06-14T01:25:57;4.90;;;3.53;;
33162;SDS011;29282;45.656;11.302;2023-06-14T01:28:23;4.78;;;3.42;;
33162;SDS011;29282;45.656;11.302;2023-06-14T01:30:54;4.38;;;3.60;;
33162;SDS011;29282;45.656;11.302;2023-06-14T01:33:28;4.65;;;3.53;;
33162;SDS011;29282;45.656;11.302;2023-06-14T01:35:55;5.95;;;3.85;;
33162;SDS011;29282;45.656;11.302;2023-06-14T01:38:23;4.53;;;3.95;;
33162;SDS011;29282;45.656;11.302;2023-06-14T01:40:56;4.82;;;3.83;;
33162;SDS011;29282;45.656;11.302;2023-06-14T01:43:30;3.92;;;3.42;;
33162;SDS011;29282;45.656;11.302;2023-06-14T01:46:00;4.32;;;3.53;;
33162;SDS011;29282;45.656;11.302;2023-06-14T01:48:31;5.05;;;3.80;;
33162;SDS011;29282;45.656;11.302;2023-06-14T01:50:57;4.35;;;3.28;;
33162;SDS011;29282;45.656;11.302;2023-06-14T01:53:26;5.40;;;3.15;;
33162;SDS011;29282;45.656;11.302;2023-06-14T01:55:52;4.07;;;3.55;;
33162;SDS011;29282;45.656;11.302;2023-06-14T01:58:19;6.30;;;3.67;;
33162;SDS011;29282;45.656;11.302;2023-06-14T02:00:46;4.47;;;3.45;;
33162;SDS011;29282;45.656;11.302;2023-06-14T02:03:12;3.47;;;3.15;;
33162;SDS011;29282;45.656;11.302;2023-06-14T02:05:38;5.18;;;3.90;;
33162;SDS011;29282;45.656;11.302;2023-06-14T02:08:05;3.95;;;3.40;;
33162;SDS011;29282;45.656;11.302;2023-06-14T02:10:32;4.13;;;3.40;;
33162;SDS011;29282;45.656;11.302;2023-06-14T02:12:58;6.47;;;3.65;;
33162;SDS011;29282;45.656;11.302;2023-06-14T02:15:23;4.72;;;3.17;;
33162;SDS011;29282;45.656;11.302;2023-06-14T02:17:52;3.97;;;3.30;;
33162;SDS011;29282;45.656;11.302;2023-06-14T02:20:21;4.28;;;3.15;;
33162;SDS011;29282;45.656;11.302;2023-06-14T02:22:47;3.47;;;3.00;;
33162;SDS011;29282;45.656;11.302;2023-06-14T02:25:13;5.18;;;3.63;;
33162;SDS011;29282;45.656;11.302;2023-06-14T02:27:39;4.75;;;3.50;;
33162;SDS011;29282;45.656;11.302;2023-06-14T02:30:05;4.25;;;3.30;;
33162;SDS011;29282;45.656;11.302;2023-06-14T02:32:32;4.72;;;3.45;;
33162;SDS011;29282;45.656;11.302;2023-06-14T02:35:01;4.15;;;3.40;;
33162;SDS011;29282;45.656;11.302;2023-06-14T02:37:28;4.65;;;3.33;;
33162;SDS011;29282;45.656;11.302;2023-06-14T02:39:53;5.15;;;3.30;;
33162;SDS011;29282;45.656;11.302;2023-06-14T02:42:19;5.43;;;3.60;;
33162;SDS011;29282;45.656;11.302;2023-06-14T02:44:48;5.53;;;3.72;;
33162;SDS011;29282;45.656;11.302;2023-06-14T02:47:17;3.60;;;3.28;;
33162;SDS011;29282;45.656;11.302;2023-06-14T02:49:43;5.13;;;3.20;;
33162;SDS011;29282;45.656;11.302;2023-06-14T02:52:15;3.65;;;3.22;;
33162;SDS011;29282;45.656;11.302;2023-06-14T02:54:41;4.05;;;3.20;;
33162;SDS011;29282;45.656;11.302;2023-06-14T02:57:07;4.55;;;3.35;;
33162;SDS011;29282;45.656;11.302;2023-06-14T02:59:36;4.18;;;3.42;;
33162;SDS011;29282;45.656;11.302;2023-06-14T03:02:02;4.07;;;3.03;;
33162;SDS011;29282;45.656;11.302;2023-06-14T03:04:28;3.92;;;3.13;;
33162;SDS011;29282;45.656;11.302;2023-06-14T03:06:54;3.90;;;3.47;;
33162;SDS011;29282;45.656;11.302;2023-06-14T03:09:22;3.65;;;3.03;;
33162;SDS011;29282;45.656;11.302;2023-06-14T03:11:48;6.05;;;3.40;;
33162;SDS011;29282;45.656;11.302;2023-06-14T03:14:14;5.65;;;3.45;;
33162;SDS011;29282;45.656;11.302;2023-06-14T03:16:42;4.40;;;3.40;;
33162;SDS011;29282;45.656;11.302;2023-06-14T03:19:08;4.78;;;3.50;;
33162;SDS011;29282;45.656;11.302;2023-06-14T03:21:34;3.67;;;3.38;;
33162;SDS011;29282;45.656;11.302;2023-06-14T03:24:00;3.60;;;3.03;;
33162;SDS011;29282;45.656;11.302;2023-06-14T03:26:25;3.95;;;3.35;;
33162;SDS011;29282;45.656;11.302;2023-06-14T03:28:51;5.05;;;3.50;;
33162;SDS011;29282;45.656;11.302;2023-06-14T03:31:23;4.97;;;3.58;;
33162;SDS011;29282;45.656;11.302;2023-06-14T03:33:49;7.13;;;3.20;;
33162;SDS011;29282;45.656;11.302;2023-06-14T03:36:15;5.15;;;3.38;;
33162;SDS011;29282;45.656;11.302;2023-06-14T03:38:41;3.55;;;3.25;;
33162;SDS011;29282;45.656;11.302;2023-06-14T03:41:06;4.65;;;3.53;;
33162;SDS011;29282;45.656;11.302;2023-06-14T03:43:35;5.55;;;3.80;;
33162;SDS011;29282;45.656;11.302;2023-06-14T03:46:01;7.20;;;4.30;;
33162;SDS011;29282;45.656;11.302;2023-06-14T03:48:27;4.57;;;4.10;;
33162;SDS011;29282;45.656;11.302;2023-06-14T03:50:53;9.32;;;4.28;;
33162;SDS011;29282;45.656;11.302;2023-06-14T03:53:23;6.75;;;4.00;;
33162;SDS011;29282;45.656;11.302;2023-06-14T03:55:49;8.50;;;4.20;;
33162;SDS011;29282;45.656;11.302;2023-06-14T03:58:17;6.30;;;3.97;;
33162;SDS011;29282;45.656;11.302;2023-06-14T04:00:46;4.60;;;3.72;;
33162;SDS011;29282;45.656;11.302;2023-06-14T04:03:12;5.50;;;3.70;;
33162;SDS011;29282;45.656;11.302;2023-06-14T04:05:41;5.15;;;4.13;;
33162;SDS011;29282;45.656;11.302;2023-06-14T04:08:14;6.47;;;3.60;;
33162;SDS011;29282;45.656;11.302;2023-06-14T04:10:40;4.40;;;3.38;;
33162;SDS011;29282;45.656;11.302;2023-06-14T04:13:06;3.92;;;3.55;;
33162;SDS011;29282;45.656;11.302;2023-06-14T04:15:32;5.25;;;3.38;;
33162;SDS011;29282;45.656;11.302;2023-06-14T04:17:58;6.50;;;3.80;;
33162;SDS011;29282;45.656;11.302;2023-06-14T04:20:24;4.28;;;3.80;;
33162;SDS011;29282;45.656;11.302;2023-06-14T04:22:50;4.38;;;3.55;;
33162;SDS011;29282;45.656;11.302;2023-06-14T04:25:16;4.80;;;3.90;;
33162;SDS011;29282;45.656;11.302;2023-06-14T04:27:42;6.70;;;3.70;;
33162;SDS011;29282;45.656;11.302;2023-06-14T04:30:09;7.57;;;4.20;;
33162;SDS011;29282;45.656;11.302;2023-06-14T04:32:34;4.97;;;3.58;;
33162;SDS011;29282;45.656;11.302;2023-06-14T04:35:03;6.90;;;3.72;;
33162;SDS011;29282;45.656;11.302;2023-06-14T04:37:30;5.45;;;3.92;;
33162;SDS011;29282;45.656;11.302;2023-06-14T04:39:55;4.72;;;3.90;;
33162;SDS011;29282;45.656;11.302;2023-06-14T04:42:22;6.45;;;4.00;;
33162;SDS011;29282;45.656;11.302;2023-06-14T04:44:50;4.55;;;3.97;;
33162;SDS011;29282;45.656;11.302;2023-06-14T04:47:16;5.68;;;3.80;;
33162;SDS011;29282;45.656;11.302;2023-06-14T04:49:42;5.97;;;3.80;;
33162;SDS011;29282;45.656;11.302;2023-06-14T04:52:08;6.93;;;3.67;;
33162;SDS011;29282;45.656;11.302;2023-06-14T04:54:35;5.40;;;3.53;;
33162;SDS011;29282;45.656;11.302;2023-06-14T04:57:06;5.35;;;3.83;;
33162;SDS011;29282;45.656;11.302;2023-06-14T04:59:32;4.80;;;3.25;;
33162;SDS011;29282;45.656;11.302;2023-06-14T05:01:58;4.72;;;3.63;;
33162;SDS011;29282;45.656;11.302;2023-06-14T05:04:26;6.53;;;3.90;;
33162;SDS011;29282;45.656;11.302;2023-06-14T05:06:53;5.28;;;3.53;;
33162;SDS011;29282;45.656;11.302;2023-06-14T05:09:19;4.38;;;3.85;;
33162;SDS011;29282;45.656;11.302;2023-06-14T05:11:45;7.05;;;3.53;;
33162;SDS011;29282;45.656;11.302;2023-06-14T05:14:12;3.83;;;3.33;;
33162;SDS011;29282;45.656;11.302;2023-06-14T05:16:38;4.15;;;3.45;;
33162;SDS011;29282;45.656;11.302;2023-06-14T05:19:04;4.18;;;3.53;;
33162;SDS011;29282;45.656;11.302;2023-06-14T05:21:29;6.50;;;3.53;;
33162;SDS011;29282;45.656;11.302;2023-06-14T05:23:57;5.13;;;3.65;;
33162;SDS011;29282;45.656;11.302;2023-06-14T05:26:22;5.25;;;3.63;;
33162;SDS011;29282;45.656;11.302;2023-06-14T05:28:56;6.18;;;3.83;;
33162;SDS011;29282;45.656;11.302;2023-06-14T05:31:25;5.40;;;3.25;;
33162;SDS011;29282;45.656;11.302;2023-06-14T05:33:51;6.38;;;3.35;;
33162;SDS011;29282;45.656;11.302;2023-06-14T05:36:17;5.85;;;3.80;;
33162;SDS011;29282;45.656;11.302;2023-06-14T05:38:43;5.28;;;3.53;;
33162;SDS011;29282;45.656;11.302;2023-06-14T05:41:11;5.55;;;3.53;;
33162;SDS011;29282;45.656;11.302;2023-06-14T05:43:37;5.85;;;3.90;;
33162;SDS011;29282;45.656;11.302;2023-06-14T05:46:03;3.60;;;3.28;;
33162;SDS011;29282;45.656;11.302;2023-06-14T05:48:30;8.32;;;4.60;;
33162;SDS011;29282;45.656;11.302;2023-06-14T05:50:55;4.80;;;3.60;;
33162;SDS011;29282;45.656;11.302;2023-06-14T05:53:21;4.45;;;3.72;;
33162;SDS011;29282;45.656;11.302;2023-06-14T05:55:46;4.38;;;3.72;;
33162;SDS011;29282;45.656;11.302;2023-06-14T05:58:12;4.45;;;3.85;;
33162;SDS011;29282;45.656;11.302;2023-06-14T06:00:38;4.95;;;3.80;;
33162;SDS011;29282;45.656;11.302;2023-06-14T06:03:04;4.30;;;3.90;;
33162;SDS011;29282;45.656;11.302;2023-06-14T06:05:32;4.25;;;3.85;;
33162;SDS011;29282;45.656;11.302;2023-06-14T06:07:58;4.47;;;3.88;;
33162;SDS011;29282;45.656;11.302;2023-06-14T06:10:23;11.18;;;4.28;;
33162;SDS011;29282;45.656;11.302;2023-06-14T06:12:49;5.57;;;3.55;;
33162;SDS011;29282;45.656;11.302;2023-06-14T06:15:17;4.30;;;3.90;;
33162;SDS011;29282;45.656;11.302;2023-06-14T06:17:43;4.25;;;3.65;;
33162;SDS011;29282;45.656;11.302;2023-06-14T06:20:09;4.47;;;3.60;;
33162;SDS011;29282;45.656;11.302;2023-06-14T06:22:36;4.07;;;3.47;;
33162;SDS011;29282;45.656;11.302;2023-06-14T06:25:02;4.13;;;3.42;;
33162;SDS011;29282;45.656;11.302;2023-06-14T06:27:28;4.88;;;3.72;;
33162;SDS011;29282;45.656;11.302;2023-06-14T06:29:53;4.55;;;3.72;;
33162;SDS011;29282;45.656;11.302;2023-06-14T06:32:19;5.18;;;3.88;;
33162;SDS011;29282;45.656;11.302;2023-06-14T06:34:44;5.20;;;3.63;;
33162;SDS011;29282;45.656;11.302;2023-06-14T06:37:10;5.65;;;4.05;;
33162;SDS011;29282;45.656;11.302;2023-06-14T06:39:36;4.88;;;3.65;;
33162;SDS011;29282;45.656;11.302;2023-06-14T06:42:01;6.70;;;4.32;;
33162;SDS011;29282;45.656;11.302;2023-06-14T06:44:27;7.45;;;4.05;;
33162;SDS011;29282;45.656;11.302;2023-06-14T06:46:52;6.65;;;4.03;;
33162;SDS011;29282;45.656;11.302;2023-06-14T06:49:18;4.82;;;3.67;;
33162;SDS011;29282;45.656;11.302;2023-06-14T06:51:48;4.55;;;3.72;;
33162;SDS011;29282;45.656;11.302;2023-06-14T06:54:24;5.43;;;3.80;;
33162;SDS011;29282;45.656;11.302;2023-06-14T06:56:50;4.15;;;3.75;;
33162;SDS011;29282;45.656;11.302;2023-06-14T06:59:15;6.38;;;3.58;;
33162;SDS011;29282;45.656;11.302;2023-06-14T07:01:41;5.75;;;3.70;;
33162;SDS011;29282;45.656;11.302;2023-06-14T07:04:07;9.60;;;3.70;;
33162;SDS011;29282;45.656;11.302;2023-06-14T07:06:33;9.75;;;4.55;;
33162;SDS011;29282;45.656;11.302;2023-06-14T07:08:58;8.30;;;3.70;;
33162;SDS011;29282;45.656;11.302;2023-06-14T07:11:26;9.18;;;3.78;;
33162;SDS011;29282;45.656;11.302;2023-06-14T07:13:52;5.68;;;3.97;;
33162;SDS011;29282;45.656;11.302;2023-06-14T07:16:17;4.60;;;4.10;;
33162;SDS011;29282;45.656;11.302;2023-06-14T07:18:43;4.72;;;3.70;;
33162;SDS011;29282;45.656;11.302;2023-06-14T07:21:09;6.22;;;3.35;;
33162;SDS011;29282;45.656;11.302;2023-06-14T07:23:34;5.00;;;3.55;;
33162;SDS011;29282;45.656;11.302;2023-06-14T07:26:00;6.82;;;3.42;;
33162;SDS011;29282;45.656;11.302;2023-06-14T07:28:26;6.60;;;3.97;;
33162;SDS011;29282;45.656;11.302;2023-06-14T07:30:51;4.20;;;3.80;;
33162;SDS011;29282;45.656;11.302;2023-06-14T07:33:17;5.03;;;3.60;;
33162;SDS011;29282;45.656;11.302;2023-06-14T07:35:45;4.55;;;3.65;;
33162;SDS011;29282;45.656;11.302;2023-06-14T07:38:14;5.18;;;3.92;;
33162;SDS011;29282;45.656;11.302;2023-06-14T07:40:40;6.60;;;3.50;;
33162;SDS011;29282;45.656;11.302;2023-06-14T07:43:05;6.50;;;3.80;;
33162;SDS011;29282;45.656;11.302;2023-06-14T07:45:31;3.85;;;3.40;;
33162;SDS011;29282;45.656;11.302;2023-06-14T07:47:56;4.05;;;3.63;;
33162;SDS011;29282;45.656;11.302;2023-06-14T07:50:22;4.30;;;3.90;;
33162;SDS011;29282;45.656;11.302;2023-06-14T07:52:47;5.30;;;3.33;;
33162;SDS011;29282;45.656;11.302;2023-06-14T07:55:13;4.75;;;3.67;;
33162;SDS011;29282;45.656;11.302;2023-06-14T07:57:40;4.68;;;3.95;;
33162;SDS011;29282;45.656;11.302;2023-06-14T08:00:05;4.88;;;3.80;;
33162;SDS011;29282;45.656;11.302;2023-06-14T08:02:32;4.00;;;3.60;;
33162;SDS011;29282;45.656;11.302;2023-06-14T08:04:57;7.18;;;3.53;;
33162;SDS011;29282;45.656;11.302;2023-06-14T08:07:23;5.88;;;3.45;;
33162;SDS011;29282;45.656;11.302;2023-06-14T08:09:49;6.15;;;4.03;;
33162;SDS011;29282;45.656;11.302;2023-06-14T08:12:15;4.78;;;3.63;;
33162;SDS011;29282;45.656;11.302;2023-06-14T08:14:41;3.83;;;3.42;;
33162;SDS011;29282;45.656;11.302;2023-06-14T08:17:07;3.70;;;3.30;;
33162;SDS011;29282;45.656;11.302;2023-06-14T08:19:33;3.88;;;3.42;;
33162;SDS011;29282;45.656;11.302;2023-06-14T08:21:59;4.50;;;3.25;;
33162;SDS011;29282;45.656;11.302;2023-06-14T08:24:25;3.90;;;3.17;;
33162;SDS011;29282;45.656;11.302;2023-06-14T08:26:52;4.30;;;3.83;;
33162;SDS011;29282;45.656;11.302;2023-06-14T08:29:18;4.53;;;3.40;;
33162;SDS011;29282;45.656;11.302;2023-06-14T08:31:43;4.40;;;3.67;;
33162;SDS011;29282;45.656;11.302;2023-06-14T08:34:09;3.67;;;3.35;;
33162;SDS011;29282;45.656;11.302;2023-06-14T08:36:35;3.92;;;3.53;;
33162;SDS011;29282;45.656;11.302;2023-06-14T08:39:01;4.32;;;3.22;;
33162;SDS011;29282;45.656;11.302;2023-06-14T08:41:27;4.03;;;3.38;;
33162;SDS011;29282;45.656;11.302;2023-06-14T08:43:54;5.18;;;3.78;;
33162;SDS011;29282;45.656;11.302;2023-06-14T08:46:20;3.50;;;3.20;;
33162;SDS011;29282;45.656;11.302;2023-06-14T08:48:51;4.72;;;3.45;;
33162;SDS011;29282;45.656;11.302;2023-06-14T08:51:20;4.60;;;3.40;;
33162;SDS011;29282;45.656;11.302;2023-06-14T08:53:52;4.72;;;3.10;;
33162;SDS011;29282;45.656;11.302;2023-06-14T08:56:24;4.53;;;3.80;;
33162;SDS011;29282;45.656;11.302;2023-06-14T08:58:52;4.63;;;3.47;;
33162;SDS011;29282;45.656;11.302;2023-06-14T09:01:19;4.10;;;2.92;;
33162;SDS011;29282;45.656;11.302;2023-06-14T09:03:46;4.00;;;3.60;;
33162;SDS011;29282;45.656;11.302;2023-06-14T09:06:13;4.78;;;3.38;;
33162;SDS011;29282;45.656;11.302;2023-06-14T09:08:43;3.78;;;3.42;;
33162;SDS011;29282;45.656;11.302;2023-06-14T09:11:12;5.53;;;3.45;;
33162;SDS011;29282;45.656;11.302;2023-06-14T09:13:39;3.38;;;3.08;;
33162;SDS011;29282;45.656;11.302;2023-06-14T09:16:08;3.95;;;3.33;;
33162;SDS011;29282;45.656;11.302;2023-06-14T09:18:44;4.93;;;3.35;;
33162;SDS011;29282;45.656;11.302;2023-06-14T09:21:13;3.78;;;3.25;;
33162;SDS011;29282;45.656;11.302;2023-06-14T09:23:40;4.68;;;4.03;;
33162;SDS011;29282;45.656;11.302;2023-06-14T09:26:13;4.38;;;3.58;;
33162;SDS011;29282;45.656;11.302;2023-06-14T09:28:49;4.20;;;3.35;;
33162;SDS011;29282;45.656;11.302;2023-06-14T09:31:19;4.30;;;3.50;;
33162;SDS011;29282;45.656;11.302;2023-06-14T09:33:46;3.58;;;3.28;;
33162;SDS011;29282;45.656;11.302;2023-06-14T09:36:23;4.97;;;3.63;;
33162;SDS011;29282;45.656;11.302;2023-06-14T09:43:59;5.93;;;3.80;;
33162;SDS011;29282;45.656;11.302;2023-06-14T09:46:26;4.07;;;3.30;;
33162;SDS011;29282;45.656;11.302;2023-06-14T09:48:52;3.33;;;3.03;;
33162;SDS011;29282;45.656;11.302;2023-06-14T09:51:18;3.33;;;3.03;;
33162;SDS011;29282;45.656;11.302;2023-06-14T09:53:46;3.70;;;3.40;;
33162;SDS011;29282;45.656;11.302;2023-06-14T09:56:14;4.15;;;3.35;;
33162;SDS011;29282;45.656;11.302;2023-06-14T09:58:45;3.60;;;3.20;;
33162;SDS011;29282;45.656;11.302;2023-06-14T10:01:11;4.80;;;3.17;;
33162;SDS011;29282;45.656;11.302;2023-06-14T10:03:38;3.33;;;3.03;;
33162;SDS011;29282;45.656;11.302;2023-06-14T10:06:05;3.55;;;3.25;;
33162;SDS011;29282;45.656;11.302;2023-06-14T10:08:33;3.30;;;3.00;;
33162;SDS011;29282;45.656;11.302;2023-06-14T10:11:02;3.30;;;3.00;;
33162;SDS011;29282;45.656;11.302;2023-06-14T10:13:28;3.47;;;3.17;;
33162;SDS011;29282;45.656;11.302;2023-06-14T10:18:49;3.10;;;2.83;;
33162;SDS011;29282;45.656;11.302;2023-06-14T10:21:32;3.75;;;3.25;;
33162;SDS011;29282;45.656;11.302;2023-06-14T10:24:07;4.28;;;3.28;;
33162;SDS011;29282;45.656;11.302;2023-06-14T10:26:39;3.35;;;2.97;;
33162;SDS011;29282;45.656;11.302;2023-06-14T10:29:16;3.72;;;3.42;;
33162;SDS011;29282;45.656;11.302;2023-06-14T10:31:45;3.58;;;3.28;;
33162;SDS011;29282;45.656;11.302;2023-06-14T10:34:12;3.40;;;3.00;;
33162;SDS011;29282;45.656;11.302;2023-06-14T10:36:50;3.50;;;2.95;;
33162;SDS011;29282;45.656;11.302;2023-06-14T10:39:38;3.33;;;3.03;;
33162;SDS011;29282;45.656;11.302;2023-06-14T10:42:06;3.20;;;2.90;;
33162;SDS011;29282;45.656;11.302;2023-06-14T10:47:06;3.30;;;2.95;;
33162;SDS011;29282;45.656;11.302;2023-06-14T10:52:18;3.13;;;2.80;;
33162;SDS011;29282;45.656;11.302;2023-06-14T10:57:57;3.30;;;3.00;;
33162;SDS011;29282;45.656;11.302;2023-06-14T11:00:24;3.28;;;3.00;;
33162;SDS011;29282;45.656;11.302;2023-06-14T11:05:53;3.78;;;3.13;;
33162;SDS011;29282;45.656;11.302;2023-06-14T11:08:37;3.55;;;3.03;;
33162;SDS011;29282;45.656;11.302;2023-06-14T11:11:12;3.42;;;3.10;;
33162;SDS011;29282;45.656;11.302;2023-06-14T11:13:39;3.60;;;3.03;;
33162;SDS011;29282;45.656;11.302;2023-06-14T11:16:13;3.45;;;3.03;;
33162;SDS011;29282;45.656;11.302;2023-06-14T11:18:40;3.67;;;3.38;;
33162;SDS011;29282;45.656;11.302;2023-06-14T11:21:06;3.30;;;3.00;;
33162;SDS011;29282;45.656;11.302;2023-06-14T11:23:33;4.45;;;3.50;;
33162;SDS011;29282;45.656;11.302;2023-06-14T11:26:00;3.45;;;2.92;;
33162;SDS011;29282;45.656;11.302;2023-06-14T11:28:35;3.10;;;2.90;;
33162;SDS011;29282;45.656;11.302;2023-06-14T11:31:02;3.45;;;2.95;;
33162;SDS011;29282;45.656;11.302;2023-06-14T11:33:29;3.95;;;2.75;;
33162;SDS011;29282;45.656;11.302;2023-06-14T11:35:54;2.80;;;2.60;;
33162;SDS011;29282;45.656;11.302;2023-06-14T11:38:20;3.63;;;2.97;;
33162;SDS011;29282;45.656;11.302;2023-06-14T11:40:46;3.35;;;3.05;;
33162;SDS011;29282;45.656;11.302;2023-06-14T11:43:11;4.65;;;3.35;;
33162;SDS011;29282;45.656;11.302;2023-06-14T11:45:38;3.17;;;2.90;;
33162;SDS011;29282;45.656;11.302;2023-06-14T11:48:04;3.20;;;2.90;;
33162;SDS011;29282;45.656;11.302;2023-06-14T11:50:31;3.30;;;3.00;;
33162;SDS011;29282;45.656;11.302;2023-06-14T11:53:01;3.47;;;3.17;;
33162;SDS011;29282;45.656;11.302;2023-06-14T11:55:35;2.95;;;2.75;;
33162;SDS011;29282;45.656;11.302;2023-06-14T11:58:04;3.10;;;2.80;;
33162;SDS011;29282;45.656;11.302;2023-06-14T12:00:30;3.40;;;3.10;;
33162;SDS011;29282;45.656;11.302;2023-06-14T12:02:56;4.20;;;3.10;;
33162;SDS011;29282;45.656;11.302;2023-06-14T12:05:22;3.50;;;3.20;;
33162;SDS011;29282;45.656;11.302;2023-06-14T12:07:48;3.78;;;3.25;;
33162;SDS011;29282;45.656;11.302;2023-06-14T12:10:15;2.92;;;2.72;;
33162;SDS011;29282;45.656;11.302;2023-06-14T12:12:41;3.20;;;2.72;;
33162;SDS011;29282;45.656;11.302;2023-06-14T12:15:08;3.00;;;2.80;;
33162;SDS011;29282;45.656;11.302;2023-06-14T12:17:37;2.88;;;2.65;;
33162;SDS011;29282;45.656;11.302;2023-06-14T12:20:07;3.10;;;2.80;;
33162;SDS011;29282;45.656;11.302;2023-06-14T12:22:58;2.92;;;2.67;;
33162;SDS011;29282;45.656;11.302;2023-06-14T12:25:27;3.15;;;2.85;;
33162;SDS011;29282;45.656;11.302;2023-06-14T12:27:56;2.80;;;2.60;;
33162;SDS011;29282;45.656;11.302;2023-06-14T12:30:22;3.70;;;3.13;;
33162;SDS011;29282;45.656;11.302;2023-06-14T12:32:48;3.00;;;2.80;;
33162;SDS011;29282;45.656;11.302;2023-06-14T12:35:14;3.10;;;2.80;;
33162;SDS011;29282;45.656;11.302;2023-06-14T12:37:40;3.15;;;2.85;;
33162;SDS011;29282;45.656;11.302;2023-06-14T12:40:06;3.17;;;2.90;;
33162;SDS011;29282;45.656;11.302;2023-06-14T12:42:32;2.90;;;2.58;;
33162;SDS011;29282;45.656;11.302;2023-06-14T12:44:59;4.63;;;2.75;;
33162;SDS011;29282;45.656;11.302;2023-06-14T12:47:24;4.03;;;3.03;;
33162;SDS011;29282;45.656;11.302;2023-06-14T12:49:50;6.05;;;3.33;;
33162;SDS011;29282;45.656;11.302;2023-06-14T12:52:18;4.15;;;2.83;;
33162;SDS011;29282;45.656;11.302;2023-06-14T12:54:44;3.58;;;2.88;;
33162;SDS011;29282;45.656;11.302;2023-06-14T12:57:10;8.98;;;3.25;;
33162;SDS011;29282;45.656;11.302;2023-06-14T12:59:35;5.05;;;2.95;;
33162;SDS011;29282;45.656;11.302;2023-06-14T13:02:13;4.30;;;2.92;;
33162;SDS011;29282;45.656;11.302;2023-06-14T13:04:41;3.58;;;2.90;;
33162;SDS011;29282;45.656;11.302;2023-06-14T13:07:07;4.35;;;3.10;;
33162;SDS011;29282;45.656;11.302;2023-06-14T13:09:32;4.22;;;3.40;;
33162;SDS011;29282;45.656;11.302;2023-06-14T13:11:58;5.72;;;2.90;;
33162;SDS011;29282;45.656;11.302;2023-06-14T13:14:23;5.57;;;3.00;;
33162;SDS011;29282;45.656;11.302;2023-06-14T13:16:49;4.50;;;3.17;;
33162;SDS011;29282;45.656;11.302;2023-06-14T13:19:15;6.22;;;3.03;;
33162;SDS011;29282;45.656;11.302;2023-06-14T13:21:40;3.10;;;2.80;;
33162;SDS011;29282;45.656;11.302;2023-06-14T13:24:06;3.90;;;3.17;;
33162;SDS011;29282;45.656;11.302;2023-06-14T13:26:32;5.82;;;2.80;;
33162;SDS011;29282;45.656;11.302;2023-06-14T13:28:58;4.35;;;2.85;;
33162;SDS011;29282;45.656;11.302;2023-06-14T13:31:23;3.42;;;3.13;;
33162;SDS011;29282;45.656;11.302;2023-06-14T13:33:49;3.42;;;2.90;;
33162;SDS011;29282;45.656;11.302;2023-06-14T13:36:14;4.15;;;2.88;;
33162;SDS011;29282;45.656;11.302;2023-06-14T13:38:40;4.55;;;3.00;;
33162;SDS011;29282;45.656;11.302;2023-06-14T13:41:05;4.57;;;3.33;;
33162;SDS011;29282;45.656;11.302;2023-06-14T13:43:31;4.10;;;2.85;;
33162;SDS011;29282;45.656;11.302;2023-06-14T13:45:56;3.13;;;2.83;;
33162;SDS011;29282;45.656;11.302;2023-06-14T13:48:22;3.30;;;3.00;;
33162;SDS011;29282;45.656;11.302;2023-06-14T13:50:47;3.80;;;3.10;;
33162;SDS011;29282;45.656;11.302;2023-06-14T13:53:13;3.78;;;2.97;;
33162;SDS011;29282;45.656;11.302;2023-06-14T13:55:39;3.00;;;2.70;;
33162;SDS011;29282;45.656;11.302;2023-06-14T13:58:07;5.97;;;3.08;;
33162;SDS011;29282;45.656;11.302;2023-06-14T14:00:32;5.00;;;2.85;;
33162;SDS011;29282;45.656;11.302;2023-06-14T14:02:59;5.00;;;2.90;;
33162;SDS011;29282;45.656;11.302;2023-06-14T14:05:25;3.38;;;2.80;;
33162;SDS011;29282;45.656;11.302;2023-06-14T14:07:54;3.53;;;3.05;;
33162;SDS011;29282;45.656;11.302;2023-06-14T14:10:19;3.95;;;3.10;;
33162;SDS011;29282;45.656;11.302;2023-06-14T14:12:45;4.13;;;2.75;;
33162;SDS011;29282;45.656;11.302;2023-06-14T14:15:11;2.95;;;2.70;;
33162;SDS011;29282;45.656;11.302;2023-06-14T14:17:39;2.85;;;2.60;;
33162;SDS011;29282;45.656;11.302;2023-06-14T14:20:05;3.50;;;3.15;;
33162;SDS011;29282;45.656;11.302;2023-06-14T14:22:31;4.32;;;2.75;;
33162;SDS011;29282;45.656;11.302;2023-06-14T14:24:57;5.78;;;3.13;;
33162;SDS011;29282;45.656;11.302;2023-06-14T14:27:23;3.47;;;2.70;;
33162;SDS011;29282;45.656;11.302;2023-06-14T14:29:48;4.38;;;3.00;;
33162;SDS011;29282;45.656;11.302;2023-06-14T14:32:13;3.42;;;2.95;;
33162;SDS011;29282;45.656;11.302;2023-06-14T14:34:40;3.22;;;2.88;;
33162;SDS011;29282;45.656;11.302;2023-06-14T14:37:05;3.00;;;2.70;;
33162;SDS011;29282;45.656;11.302;2023-06-14T14:39:31;4.47;;;3.03;;
33162;SDS011;29282;45.656;11.302;2023-06-14T14:41:56;3.15;;;2.83;;
33162;SDS011;29282;45.656;11.302;2023-06-14T14:44:22;3.65;;;2.80;;
33162;SDS011;29282;45.656;11.302;2023-06-14T14:46:48;4.18;;;3.00;;
33162;SDS011;29282;45.656;11.302;2023-06-14T14:49:13;3.17;;;2.88;;
33162;SDS011;29282;45.656;11.302;2023-06-14T14:51:38;4.95;;;3.05;;
33162;SDS011;29282;45.656;11.302;2023-06-14T14:54:05;3.25;;;2.95;;
33162;SDS011;29282;45.656;11.302;2023-06-14T14:56:31;3.22;;;2.92;;
33162;SDS011;29282;45.656;11.302;2023-06-14T14:58:57;4.75;;;3.10;;